createdAt,value
2022-12-13T00:02:12.308Z,4.03
2022-12-13T00:04:43.597Z,3.90
2022-12-13T00:07:13.358Z,4.00
2022-12-13T00:09:45.809Z,3.53
2022-12-13T00:12:15.554Z,3.80
2022-12-13T00:14:45.219Z,3.47
2022-12-13T00:17:14.969Z,4.00
2022-12-13T00:19:44.641Z,3.55
2022-12-13T00:22:14.402Z,3.42
2022-12-13T00:24:46.733Z,4.03
2022-12-13T00:27:16.580Z,4.13
2022-12-13T00:29:46.287Z,4.13
2022-12-13T00:32:16.006Z,4.03
2022-12-13T00:34:45.808Z,3.95
2022-12-13T00:37:15.584Z,4.05
2022-12-13T00:39:47.837Z,4.05
2022-12-13T00:42:17.568Z,3.80
2022-12-13T00:44:47.354Z,4.22
2022-12-13T00:47:19.067Z,3.83
2022-12-13T00:49:48.774Z,4.10
2022-12-13T00:52:18.493Z,4.32
2022-12-13T00:54:50.777Z,3.97
2022-12-13T00:57:21.272Z,4.15
2022-12-13T00:59:51.009Z,3.70
2022-12-13T01:02:20.796Z,4.10
2022-12-13T01:04:52.224Z,4.18
2022-12-13T01:07:21.893Z,3.78
2022-12-13T01:09:54.173Z,3.80
2022-12-13T01:12:23.907Z,3.78
2022-12-13T01:14:56.177Z,4.05
2022-12-13T01:17:26.743Z,3.40
2022-12-13T01:19:56.453Z,4.32
2022-12-13T01:22:26.192Z,3.58
2022-12-13T01:24:58.462Z,3.85
2022-12-13T01:27:28.186Z,4.07
2022-12-13T01:29:57.936Z,4.30
2022-12-13T01:32:27.624Z,4.18
2022-12-13T01:34:57.305Z,4.10
2022-12-13T01:37:26.972Z,3.53
2022-12-13T01:40:00.124Z,3.90
2022-12-13T01:42:29.832Z,4.00
2022-12-13T01:45:06.230Z,3.60
2022-12-13T01:47:41.926Z,4.30
2022-12-13T01:50:15.478Z,3.95
2022-12-13T01:52:46.020Z,3.65
2022-12-13T01:55:21.354Z,3.65
2022-12-13T01:57:53.427Z,4.03
2022-12-13T02:00:23.329Z,3.83
2022-12-13T02:02:53.578Z,3.70
2022-12-13T02:05:29.354Z,3.67
2022-12-13T02:08:01.222Z,3.90
2022-12-13T02:10:34.215Z,4.18
2022-12-13T02:13:03.886Z,4.13
2022-12-13T02:15:44.002Z,3.88
2022-12-13T02:18:27.757Z,4.40
2022-12-13T02:21:21.379Z,4.22
2022-12-13T02:24:24.680Z,4.45
2022-12-13T02:27:30.892Z,3.58
2022-12-13T02:30:27.057Z,4.10
2022-12-13T02:33:21.262Z,4.35
2022-12-13T02:35:57.963Z,3.92
2022-12-13T02:38:36.037Z,3.85
2022-12-13T02:41:15.008Z,3.75
2022-12-13T02:43:51.056Z,4.10
2022-12-13T02:46:27.908Z,4.18
2022-12-13T02:49:00.052Z,4.43
2022-12-13T02:51:30.257Z,4.55
2022-12-13T02:53:59.927Z,3.70
2022-12-13T02:56:29.669Z,3.90
2022-12-13T02:59:00.465Z,4.20
2022-12-13T03:01:49.735Z,3.80
2022-12-13T03:04:30.232Z,4.03
2022-12-13T03:07:07.305Z,4.60
2022-12-13T03:09:54.164Z,4.32
2022-12-13T03:12:44.675Z,4.63
2022-12-13T03:15:22.581Z,4.90
2022-12-13T03:17:59.726Z,5.00
2022-12-13T03:20:31.789Z,4.70
2022-12-13T03:23:02.007Z,4.55
2022-12-13T03:25:34.627Z,4.32
2022-12-13T03:28:04.770Z,4.55
2022-12-13T03:30:36.319Z,4.22
2022-12-13T03:33:08.655Z,4.40
2022-12-13T03:35:44.964Z,5.15
2022-12-13T03:38:21.345Z,4.15
2022-12-13T03:40:55.210Z,4.85
2022-12-13T03:43:25.391Z,4.55
2022-12-13T03:45:55.722Z,4.10
2022-12-13T03:48:28.044Z,4.43
2022-12-13T03:50:59.360Z,4.35
2022-12-13T03:53:33.623Z,4.25
2022-12-13T03:56:04.766Z,3.55
2022-12-13T03:58:38.032Z,4.03
2022-12-13T04:01:09.980Z,4.30
2022-12-13T04:03:45.561Z,4.20
2022-12-13T04:06:22.857Z,4.28
2022-12-13T04:08:54.209Z,4.32
2022-12-13T04:11:36.518Z,4.38
2022-12-13T04:14:22.418Z,4.20
2022-12-13T04:16:53.203Z,5.18
2022-12-13T04:19:25.576Z,5.20
2022-12-13T04:21:56.311Z,5.90
2022-12-13T04:24:31.213Z,5.72
2022-12-13T04:27:02.331Z,5.00
2022-12-13T04:29:33.967Z,4.57
2022-12-13T04:32:05.381Z,4.85
2022-12-13T04:35:01.662Z,5.82
2022-12-13T04:37:31.714Z,5.15
2022-12-13T04:40:01.548Z,5.88
2022-12-13T04:42:31.628Z,5.60
2022-12-13T04:45:01.354Z,5.40
2022-12-13T04:47:31.171Z,4.93
2022-12-13T04:50:03.607Z,4.72
2022-12-13T04:52:33.332Z,6.18
2022-12-13T04:55:03.056Z,6.07
2022-12-13T04:57:33.770Z,6.32
2022-12-13T05:00:03.513Z,5.93
2022-12-13T05:02:33.518Z,6.20
2022-12-13T05:05:05.855Z,6.07
2022-12-13T05:07:35.606Z,6.47
2022-12-13T05:10:13.992Z,5.55
2022-12-13T05:13:02.821Z,6.10
2022-12-13T05:15:32.850Z,6.47
2022-12-13T05:18:10.156Z,5.63
2022-12-13T05:20:45.226Z,4.95
2022-12-13T05:23:14.967Z,5.10
2022-12-13T05:25:52.952Z,4.70
2022-12-13T05:28:27.976Z,5.07
2022-12-13T05:31:00.475Z,4.47
2022-12-13T05:33:30.207Z,4.47
2022-12-13T05:36:02.873Z,4.82
2022-12-13T05:38:32.925Z,4.57
2022-12-13T05:41:02.747Z,4.97
2022-12-13T05:43:42.810Z,4.63
2022-12-13T05:46:14.323Z,4.97
2022-12-13T05:48:44.212Z,4.47
2022-12-13T05:51:16.483Z,4.95
2022-12-13T05:53:51.577Z,5.35
2022-12-13T05:56:23.185Z,4.93
2022-12-13T05:58:54.224Z,5.82
2022-12-13T06:01:25.181Z,5.43
2022-12-13T06:03:54.950Z,4.90
2022-12-13T06:06:27.318Z,5.13
2022-12-13T06:08:57.144Z,4.75
2022-12-13T06:11:32.267Z,5.30
2022-12-13T06:14:02.367Z,5.03
2022-12-13T06:16:32.177Z,6.63
2022-12-13T06:19:04.491Z,11.75
2022-12-13T06:21:41.447Z,9.93
2022-12-13T06:24:16.997Z,6.00
2022-12-13T06:26:47.447Z,4.95
2022-12-13T06:29:24.065Z,5.85
2022-12-13T06:32:02.222Z,10.73
2022-12-13T06:34:35.883Z,14.20
2022-12-13T06:37:10.434Z,6.40
2022-12-13T06:39:40.492Z,9.55
2022-12-13T06:42:21.869Z,11.00
2022-12-13T06:44:56.170Z,12.50
2022-12-13T06:47:31.295Z,11.23
2022-12-13T06:50:05.145Z,8.93
2022-12-13T06:52:38.196Z,8.57
2022-12-13T06:55:09.679Z,8.15
2022-12-13T06:57:40.796Z,9.15
2022-12-13T07:00:12.573Z,10.10
2022-12-13T07:02:42.420Z,11.07
2022-12-13T07:05:13.146Z,12.65
2022-12-13T07:07:45.390Z,11.82
2022-12-13T07:10:22.051Z,9.48
2022-12-13T07:12:52.758Z,7.38
2022-12-13T07:15:22.425Z,6.00
2022-12-13T07:17:52.902Z,5.78
2022-12-13T07:20:23.601Z,5.93
2022-12-13T07:22:58.703Z,6.00
2022-12-13T07:25:29.634Z,6.45
2022-12-13T07:28:02.633Z,6.43
2022-12-13T07:30:34.207Z,8.18
2022-12-13T07:33:10.566Z,12.43
2022-12-13T07:35:40.416Z,13.00
2022-12-13T07:38:14.922Z,10.55
2022-12-13T07:40:44.970Z,7.10
2022-12-13T07:43:16.415Z,7.07
2022-12-13T07:45:46.506Z,6.80
2022-12-13T07:48:16.920Z,6.97
2022-12-13T07:50:46.785Z,7.32
2022-12-13T07:53:27.071Z,13.77
2022-12-13T07:55:56.859Z,12.35
2022-12-13T07:58:26.554Z,12.45
2022-12-13T08:00:56.214Z,10.32
2022-12-13T08:03:26.599Z,8.93
2022-12-13T08:06:04.194Z,10.98
2022-12-13T08:08:37.635Z,10.00
2022-12-13T08:11:09.480Z,9.35
2022-12-13T08:13:40.708Z,13.35
2022-12-13T08:16:27.782Z,17.23
2022-12-13T08:19:01.622Z,20.77
2022-12-13T08:21:53.861Z,20.27
2022-12-13T08:24:27.934Z,19.90
2022-12-13T08:27:01.191Z,16.88
2022-12-13T08:29:33.523Z,16.50
2022-12-13T08:32:06.180Z,15.75
2022-12-13T08:34:35.993Z,16.52
2022-12-13T08:37:09.046Z,12.15
2022-12-13T08:39:42.646Z,8.20
2022-12-13T08:42:18.935Z,7.95
2022-12-13T08:44:51.437Z,8.25
2022-12-13T08:47:25.526Z,8.77
2022-12-13T08:50:04.066Z,8.70
2022-12-13T08:52:39.855Z,8.65
2022-12-13T08:55:15.283Z,7.97
2022-12-13T08:57:46.373Z,7.15
2022-12-13T09:00:18.097Z,7.40
2022-12-13T09:02:48.035Z,6.63
2022-12-13T09:05:33.789Z,6.30
2022-12-13T09:08:23.457Z,7.20
2022-12-13T09:11:11.243Z,7.95
2022-12-13T09:13:52.821Z,6.50
2022-12-13T09:16:35.984Z,6.45
2022-12-13T09:19:26.199Z,6.93
2022-12-13T09:22:02.665Z,7.07
2022-12-13T09:24:36.136Z,6.53
2022-12-13T09:27:10.451Z,6.30
2022-12-13T09:29:57.505Z,6.20
2022-12-13T09:32:27.747Z,6.72
2022-12-13T09:34:58.013Z,6.40
2022-12-13T09:37:27.814Z,6.90
2022-12-13T09:39:57.674Z,6.47
2022-12-13T09:42:32.649Z,6.30
2022-12-13T09:45:04.376Z,7.20
2022-12-13T09:47:37.783Z,6.65
2022-12-13T09:50:25.015Z,6.45
2022-12-13T09:52:59.859Z,6.82
2022-12-13T09:55:34.193Z,5.93
2022-12-13T09:58:10.965Z,6.38
2022-12-13T10:00:41.384Z,12.55
2022-12-13T10:03:16.024Z,8.90
2022-12-13T10:05:48.507Z,6.85
2022-12-13T10:08:21.032Z,7.53
2022-12-13T10:10:53.097Z,6.10
2022-12-13T10:13:37.328Z,5.75
2022-12-13T10:16:14.773Z,6.28
2022-12-13T10:18:53.660Z,6.25
2022-12-13T10:21:28.737Z,6.95
2022-12-13T10:24:24.077Z,8.10
2022-12-13T10:26:49.972Z,6.93
2022-12-13T10:29:23.231Z,6.80
2022-12-13T10:31:55.197Z,6.63
2022-12-13T10:34:27.347Z,6.30
2022-12-13T10:36:59.748Z,9.23
2022-12-13T10:39:41.881Z,6.28
2022-12-13T10:42:22.990Z,6.25
2022-12-13T10:45:13.194Z,6.28
2022-12-13T10:47:46.121Z,6.45
2022-12-13T10:50:27.353Z,6.03
2022-12-13T10:52:58.662Z,6.63
2022-12-13T10:55:32.869Z,6.90
2022-12-13T10:58:07.322Z,6.38
2022-12-13T11:00:45.359Z,5.95
2022-12-13T11:03:30.727Z,5.75
2022-12-13T11:06:08.740Z,5.60
2022-12-13T11:08:39.006Z,5.43
2022-12-13T11:11:12.409Z,6.50
2022-12-13T11:13:47.421Z,5.50
2022-12-13T11:16:26.714Z,5.10
2022-12-13T11:19:00.181Z,6.40
2022-12-13T11:21:32.829Z,5.97
2022-12-13T11:24:06.123Z,6.63
2022-12-13T11:26:39.155Z,6.32
2022-12-13T11:29:27.899Z,6.28
2022-12-13T11:32:09.647Z,6.75
2022-12-13T11:34:50.636Z,5.80
2022-12-13T11:37:30.832Z,6.47
2022-12-13T11:40:05.892Z,6.25
2022-12-13T11:42:42.951Z,5.63
2022-12-13T11:45:22.934Z,6.07
2022-12-13T11:48:04.839Z,6.63
2022-12-13T11:50:38.953Z,6.18
2022-12-13T11:53:23.972Z,6.07
2022-12-13T11:56:00.572Z,5.47
2022-12-13T11:59:01.729Z,5.35
2022-12-13T12:01:32.534Z,6.03
2022-12-13T12:04:20.917Z,6.43
2022-12-13T12:06:57.119Z,6.82
2022-12-13T12:09:30.227Z,6.60
2022-12-13T12:12:04.068Z,5.97
2022-12-13T12:14:41.206Z,6.85
2022-12-13T12:17:15.548Z,6.50
2022-12-13T12:19:52.081Z,9.13
2022-12-13T12:22:34.330Z,8.18
2022-12-13T12:25:22.732Z,8.02
2022-12-13T12:27:58.825Z,7.18
2022-12-13T12:30:39.960Z,7.88
2022-12-13T12:33:20.438Z,6.97
2022-12-13T12:36:07.136Z,7.53
2022-12-13T12:38:59.046Z,7.28
2022-12-13T12:41:48.133Z,7.40
2022-12-13T12:44:30.776Z,7.80
2022-12-13T12:50:28.540Z,5.38
2022-12-13T12:53:14.580Z,7.80
2022-12-13T12:56:01.777Z,7.50
2022-12-13T12:58:40.289Z,7.03
2022-12-13T13:01:24.087Z,7.78
2022-12-13T13:04:01.793Z,8.15
2022-12-13T13:06:36.688Z,7.35
2022-12-13T13:09:11.526Z,8.10
2022-12-13T13:11:46.289Z,6.88
2022-12-13T13:14:32.756Z,8.27
2022-12-13T13:17:03.967Z,8.32
2022-12-13T13:19:45.801Z,8.18
2022-12-13T13:22:34.212Z,8.13
2022-12-13T13:25:35.203Z,10.18
2022-12-13T13:28:18.822Z,9.07
2022-12-13T13:31:08.249Z,9.55
2022-12-13T13:33:55.736Z,8.93
2022-12-13T13:36:52.630Z,9.23
2022-12-13T13:39:41.584Z,8.80
2022-12-13T13:42:21.381Z,9.02
2022-12-13T13:45:21.361Z,8.57
2022-12-13T13:48:27.032Z,9.82
2022-12-13T13:51:23.131Z,8.88
2022-12-13T13:54:23.235Z,8.73
2022-12-13T13:58:07.052Z,9.27
2022-12-13T14:00:23.878Z,8.50
2022-12-13T14:03:35.103Z,9.65
2022-12-13T14:06:43.314Z,10.50
2022-12-13T14:09:47.564Z,10.02
2022-12-13T14:12:45.492Z,9.68
2022-12-13T14:15:56.786Z,9.25
2022-12-13T14:19:02.304Z,9.88
2022-12-13T14:21:42.654Z,8.90
2022-12-13T14:24:25.077Z,9.18
2022-12-13T14:27:23.044Z,8.75
2022-12-13T14:29:58.120Z,9.15
2022-12-13T14:35:25.777Z,8.93
2022-12-13T14:38:02.003Z,10.68
2022-12-13T14:40:34.968Z,11.00
2022-12-13T14:43:05.745Z,10.85
2022-12-13T14:45:38.933Z,10.75
2022-12-13T14:48:28.392Z,10.80
2022-12-13T14:51:01.797Z,9.77
2022-12-13T14:53:41.369Z,10.18
2022-12-13T14:56:27.922Z,11.23
2022-12-13T14:59:00.996Z,10.05
2022-12-13T15:01:34.276Z,11.13
2022-12-13T15:04:20.529Z,11.82
2022-12-13T15:06:53.288Z,10.48
2022-12-13T15:09:28.980Z,9.57
2022-12-13T15:12:15.245Z,8.75
2022-12-13T15:14:54.035Z,9.27
2022-12-13T15:17:30.777Z,9.63
2022-12-13T15:20:29.620Z,8.40
2022-12-13T15:23:06.233Z,10.15
2022-12-13T15:25:41.589Z,8.57
2022-12-13T15:28:21.160Z,8.43
2022-12-13T15:30:51.929Z,9.27
2022-12-13T15:33:32.680Z,8.10
2022-12-13T15:36:10.415Z,9.02
2022-12-13T15:38:43.263Z,8.35
2022-12-13T15:41:21.614Z,9.02
2022-12-13T15:43:54.352Z,7.68
2022-12-13T15:46:29.008Z,8.55
2022-12-13T15:49:00.437Z,8.23
2022-12-13T15:51:31.048Z,8.35
2022-12-13T15:54:06.908Z,8.18
2022-12-13T15:56:41.507Z,8.82
2022-12-13T15:59:28.627Z,9.13
2022-12-13T16:01:59.835Z,7.57
2022-12-13T16:04:32.825Z,8.45
2022-12-13T16:07:03.864Z,9.55
2022-12-13T16:09:38.319Z,8.93
2022-12-13T16:12:17.755Z,12.30
2022-12-13T16:14:48.961Z,9.10
2022-12-13T16:17:25.933Z,9.23
2022-12-13T16:19:56.030Z,10.45
2022-12-13T16:22:25.876Z,12.98
2022-12-13T16:24:56.596Z,12.68
2022-12-13T16:27:28.993Z,10.77
2022-12-13T16:29:58.791Z,9.23
2022-12-13T16:32:29.821Z,9.35
2022-12-13T16:35:00.876Z,10.73
2022-12-13T16:37:30.577Z,11.90
2022-12-13T16:40:02.069Z,10.52
2022-12-13T16:42:34.948Z,11.45
2022-12-13T16:45:40.500Z,12.87
2022-12-13T16:47:59.302Z,12.13
2022-12-13T16:50:29.011Z,11.70
2022-12-13T16:52:58.731Z,12.80
2022-12-13T16:55:28.495Z,12.30
2022-12-13T16:58:02.983Z,24.25
2022-12-13T17:00:33.650Z,23.40
2022-12-13T17:03:04.000Z,18.95
2022-12-13T17:05:34.368Z,15.45
2022-12-13T17:08:04.100Z,13.07
2022-12-13T17:10:33.844Z,11.73
2022-12-13T17:13:06.133Z,11.73
2022-12-13T17:15:36.126Z,12.02
2022-12-13T17:18:06.391Z,10.20
2022-12-13T17:20:36.561Z,10.30
2022-12-13T17:23:06.767Z,13.27
2022-12-13T17:25:40.404Z,15.02
2022-12-13T17:28:13.365Z,14.77
2022-12-13T17:30:46.714Z,11.88
2022-12-13T17:33:24.670Z,12.63
2022-12-13T17:35:54.606Z,12.18
2022-12-13T17:38:24.710Z,12.05
2022-12-13T17:40:55.910Z,13.05
2022-12-13T17:43:34.976Z,11.57
2022-12-13T17:46:07.603Z,11.80
2022-12-13T17:48:40.879Z,11.40
2022-12-13T17:51:12.151Z,11.63
2022-12-13T17:53:43.766Z,9.90
2022-12-13T17:56:16.022Z,12.60
2022-12-13T17:58:48.596Z,16.02
2022-12-13T18:01:20.917Z,12.63
2022-12-13T18:03:51.560Z,11.18
2022-12-13T18:06:21.835Z,10.48
2022-12-13T18:08:51.643Z,10.48
2022-12-13T18:11:38.129Z,14.07
2022-12-13T18:14:11.833Z,13.27
2022-12-13T18:16:42.818Z,13.07
2022-12-13T18:19:15.595Z,12.10
2022-12-13T18:21:45.904Z,12.50
2022-12-13T18:24:15.651Z,10.90
2022-12-13T18:26:45.393Z,11.30
2022-12-13T18:29:20.630Z,12.02
2022-12-13T18:31:50.288Z,12.63
2022-12-13T18:34:19.978Z,13.55
2022-12-13T18:36:49.719Z,11.60
2022-12-13T18:39:19.441Z,14.40
2022-12-13T18:41:49.137Z,14.95
2022-12-13T18:44:21.727Z,13.90
2022-12-13T18:46:51.945Z,11.63
2022-12-13T18:49:21.670Z,12.02
2022-12-13T18:51:51.562Z,10.85
2022-12-13T18:54:21.605Z,11.57
2022-12-13T18:56:51.307Z,11.65
2022-12-13T18:59:23.795Z,12.43
2022-12-13T19:01:55.222Z,13.32
2022-12-13T19:04:25.183Z,11.25
2022-12-13T19:06:55.166Z,11.73
2022-12-13T19:09:25.363Z,10.85
2022-12-13T19:11:55.099Z,11.55
2022-12-13T19:14:27.812Z,10.68
2022-12-13T19:16:57.634Z,12.80
2022-12-13T19:19:27.326Z,12.88
2022-12-13T19:21:57.003Z,13.55
2022-12-13T19:24:26.917Z,13.35
2022-12-13T19:26:56.784Z,13.90
2022-12-13T19:29:29.131Z,13.55
2022-12-13T19:31:58.804Z,13.95
2022-12-13T19:34:28.628Z,13.07
2022-12-13T19:37:02.941Z,13.10
2022-12-13T19:39:35.692Z,15.10
2022-12-13T19:42:05.514Z,12.95
2022-12-13T19:44:37.984Z,13.82
2022-12-13T19:47:07.829Z,66.25
2022-12-13T19:49:37.559Z,24.17
2022-12-13T19:52:07.607Z,21.73
2022-12-13T19:54:37.316Z,17.85
2022-12-13T19:57:07.549Z,16.90
2022-12-13T19:59:40.016Z,13.38
2022-12-13T20:02:09.916Z,13.10
2022-12-13T20:04:39.694Z,13.90
2022-12-13T20:07:09.527Z,13.90
2022-12-13T20:09:39.311Z,14.48
2022-12-13T20:12:09.287Z,13.43
2022-12-13T20:14:43.120Z,12.30
2022-12-13T20:17:13.033Z,12.38
2022-12-13T20:19:42.749Z,14.50
2022-12-13T20:22:12.460Z,11.40
2022-12-13T20:24:42.296Z,11.68
2022-12-13T20:27:13.242Z,12.63
2022-12-13T20:29:48.488Z,12.85
2022-12-13T20:34:54.528Z,11.80
2022-12-13T20:37:27.501Z,13.40
2022-12-13T20:39:57.905Z,11.32
2022-12-13T20:42:27.634Z,19.50
2022-12-13T20:45:00.802Z,12.35
2022-12-13T20:47:35.112Z,8.48
2022-12-13T20:50:08.549Z,14.75
2022-12-13T20:52:38.303Z,9.65
2022-12-13T20:55:09.168Z,8.30
2022-12-13T20:57:38.883Z,9.15
2022-12-13T21:00:13.169Z,8.63
2022-12-13T21:02:44.586Z,10.32
2022-12-13T21:05:20.596Z,9.05
2022-12-13T21:08:03.214Z,10.43
2022-12-13T21:10:32.896Z,8.52
2022-12-13T21:13:02.578Z,8.77
2022-12-13T21:15:34.960Z,9.45
2022-12-13T21:18:04.646Z,18.33
2022-12-13T21:20:34.381Z,9.88
2022-12-13T21:23:04.116Z,9.32
2022-12-13T21:25:33.950Z,16.10
2022-12-13T21:28:03.600Z,17.83
2022-12-13T21:30:35.892Z,10.10
2022-12-13T21:33:05.590Z,8.82
2022-12-13T21:35:35.252Z,9.40
2022-12-13T21:38:05.629Z,9.85
2022-12-13T21:40:35.419Z,14.68
2022-12-13T21:43:05.129Z,11.05
2022-12-13T21:45:37.413Z,12.55
2022-12-13T21:48:07.513Z,11.18
2022-12-13T21:50:37.280Z,12.18
2022-12-13T21:53:07.301Z,14.27
2022-12-13T21:55:39.135Z,11.68
2022-12-13T21:58:24.037Z,17.98
2022-12-13T22:00:56.513Z,13.63
2022-12-13T22:03:26.264Z,12.63
2022-12-13T22:06:00.374Z,12.60
2022-12-13T22:08:30.283Z,8.75
2022-12-13T22:11:17.746Z,14.82
2022-12-13T22:13:50.759Z,13.93
2022-12-13T22:16:23.203Z,12.85
2022-12-13T22:18:56.477Z,9.25
2022-12-13T22:21:26.299Z,17.60
2022-12-13T22:23:56.583Z,9.00
2022-12-13T22:26:27.097Z,9.85
2022-12-13T22:28:56.967Z,9.20
2022-12-13T22:31:30.761Z,8.05
2022-12-13T22:34:00.815Z,9.55
2022-12-13T22:36:30.515Z,8.80
2022-12-13T22:39:00.280Z,9.18
2022-12-13T22:41:30.330Z,8.23
2022-12-13T22:44:01.258Z,10.75
2022-12-13T22:46:33.794Z,8.27
2022-12-13T22:49:03.503Z,8.05
2022-12-13T22:51:33.266Z,8.88
2022-12-13T22:54:03.218Z,8.25
2022-12-13T22:56:33.031Z,7.63
2022-12-13T22:59:07.144Z,8.60
2022-12-13T23:01:42.424Z,7.20
2022-12-13T23:04:17.769Z,7.57
2022-12-13T23:06:47.487Z,8.27
2022-12-13T23:09:17.778Z,7.72
2022-12-13T23:12:00.022Z,7.57
2022-12-13T23:14:31.442Z,7.22
2022-12-13T23:17:05.322Z,7.10
2022-12-13T23:19:50.215Z,7.32
2022-12-13T23:22:22.926Z,7.45
2022-12-13T23:24:53.039Z,7.50
2022-12-13T23:27:24.467Z,7.78
2022-12-13T23:29:54.354Z,6.88
2022-12-13T23:32:26.614Z,7.07
2022-12-13T23:34:57.242Z,7.55
2022-12-13T23:37:26.918Z,7.18
2022-12-13T23:39:56.589Z,7.20
2022-12-13T23:42:26.287Z,7.40
2022-12-13T23:44:55.991Z,5.38
2022-12-13T23:47:28.722Z,6.63
2022-12-13T23:49:58.391Z,5.90
2022-12-13T23:52:28.258Z,6.43
2022-12-13T23:54:57.922Z,5.70
2022-12-13T23:57:27.585Z,5.55
2022-12-13T23:59:57.310Z,6.38
